Friday, January 18, 2019, 3:09 AM EST
Back to Local

KFIT, Fitchburg, Fitchburg Municipal Airport

Location: Leominster, MA, United States Lat: 42.552
Local Time: 3:09 AM EST ( 8:09 GMT) Lon: -71.756
Time Zone: US/Eastern Elev: 347 ft

Show me the last for .
Show Decoded

2019-01-18 02:52 METAR KFIT 180752Z AUTO 11004KT 10SM BKN032 OVC065 M06/M14 A3024 RMK AO2 SLP246
                 T10561139 =
2019-01-18 01:52 METAR KFIT 180652Z AUTO 00000KT 10SM OVC090 M06/M14 A3025 RMK AO2 SLP249
                 T10561144 =
2019-01-18 00:52 METAR KFIT 180552Z AUTO 00000KT 10SM BKN080 OVC100 M06/M16 A3026 RMK AO2 SLP252
                 T10561156 11056 21072 58017 =
2019-01-17 23:52 METAR KFIT 180452Z AUTO 00000KT 10SM BKN080 OVC100 M06/M14 A3028 RMK AO2 SLP261
                 T10611139 410221128 =
2019-01-17 22:52 METAR KFIT 180352Z AUTO 00000KT 10SM SCT090 OVC110 M06/M15 A3030 RMK AO2 SLP268
                 T10611150 =
2019-01-17 21:52 METAR KFIT 180252Z AUTO 00000KT 10SM OVC110 M06/M16 A3031 RMK AO2 SLP270
                 T10611161 58003 =
2019-01-17 20:52 METAR KFIT 180152Z AUTO 00000KT 10SM BKN110 M06/M16 A3031 RMK AO2 SLP272
                 T10611161 =
2019-01-17 19:52 METAR KFIT 180052Z AUTO 00000KT 10SM CLR M07/M16 A3032 RMK AO2 SLP274 T10721156
                 =
2019-01-17 18:52 METAR KFIT 172352Z AUTO 00000KT 10SM CLR M06/M17 A3032 RMK AO2 SLP273 T10611172
                 11022 21067 51004 =
2019-01-17 17:52 METAR KFIT 172252Z AUTO 00000KT 10SM CLR M07/M17 A3031 RMK AO2 SLP272 T10671172
                 =
2019-01-17 16:52 METAR KFIT 172152Z AUTO 00000KT 10SM CLR M05/M19 A3031 RMK AO2 SLP270 T10501194
                 =
2019-01-17 15:52 METAR KFIT 172052Z AUTO 29003KT 10SM CLR M03/M24 A3030 RMK AO2 SLP268 T10281239
                 58010 =
2019-01-17 14:52 METAR KFIT 171952Z AUTO VRB03KT 10SM CLR M02/M23 A3032 RMK AO2 SLP272 T10221228
                 =
2019-01-17 13:52 METAR KFIT 171852Z AUTO 23005KT 10SM CLR M03/M22 A3033 RMK AO2 SLP275 T10331222
                 =
2019-01-17 12:52 METAR KFIT 171752Z AUTO 32006KT 10SM CLR M03/M23 A3033 RMK AO2 SLP278 T10331228
                 11033 21128 58024 =
2019-01-17 11:52 METAR KFIT 171652Z AUTO 30004KT 10SM CLR M04/M22 A3036 RMK AO2 SLP287 T10391222
                 =
2019-01-17 10:52 METAR KFIT 171552Z AUTO 26004KT 10SM CLR M06/M20 A3039 RMK AO2 SLP298 T10611200
                 =
2019-01-17 09:52 METAR KFIT 171452Z AUTO 30006KT 10SM CLR M07/M19 A3040 RMK AO2 SLP302 T10721194
                 51020 =
2019-01-17 08:52 METAR KFIT 171352Z AUTO 32010KT 10SM CLR M09/M18 A3039 RMK AO2 SLP296 T10941183
                 =
2019-01-17 07:52 METAR KFIT 171252Z AUTO 00000KT 10SM CLR M11/M17 A3036 RMK AO2 SLP289 T11111172
                 =
2019-01-17 06:52 METAR KFIT 171152Z AUTO 32005KT 10SM CLR M12/M18 A3035 RMK AO2 SLP282 T11221178
                 11044 21122 51021 =
2019-01-17 05:52 METAR KFIT 171052Z AUTO 32004KT 10SM CLR M11/M18 A3032 RMK AO2 SLP274 T11111178
                 =
2019-01-17 04:52 METAR KFIT 170952Z AUTO 35007KT 10SM CLR M09/M17 A3031 RMK AO2 SLP269 T10941172
                 =
2019-01-17 03:52 METAR KFIT 170852Z AUTO 32007KT 10SM CLR M09/M17 A3028 RMK AO2 SLP261 T10891172
                 51034 =

Support USWX by starting your Amazon purchase here.